Time;durP1;ratioP1;P1;durP2;ratioP2;P2;SDS_P1;SDS_P2;PMS_P1;PMS_P2;Temp;Humidity;BMP_temperature;BMP_pressure;BME280_temperature;BME280_humidity;BME280_pressure;Samples;Min_cycle;Max_cycle;Signal;HPM_P1;HPM_P2
2022/07/12 00:01:01;;;;;;;3.25;1.50;;;;;;;;;;5113760;28;20229;-79
2022/07/12 00:03:29;;;;;;;3.22;1.20;;;;;;;;;;5113152;28;20713;-79
2022/07/12 00:05:57;;;;;;;6.25;1.58;;;;;;;;;;5113236;28;20292;-79
2022/07/12 00:08:24;;;;;;;3.33;1.30;;;;;;;;;;5113068;28;20252;-79
2022/07/12 00:10:51;;;;;;;2.80;1.52;;;;;;;;;;5112601;28;20661;-79
2022/07/12 00:13:19;;;;;;;3.60;1.60;;;;;;;;;;5113069;28;20624;-79
2022/07/12 00:15:46;;;;;;;5.10;1.90;;;;;;;;;;5112765;28;20202;-77
2022/07/12 00:18:13;;;;;;;6.23;1.77;;;;;;;;;;5113549;28;20186;-77
2022/07/12 00:20:42;;;;;;;5.20;1.63;;;;;;;;;;5112739;28;20226;-79
2022/07/12 00:23:09;;;;;;;3.73;1.70;;;;;;;;;;5113011;28;20205;-77
2022/07/12 00:25:36;;;;;;;3.17;1.57;;;;;;;;;;5113043;28;20289;-77
2022/07/12 00:28:03;;;;;;;4.40;1.73;;;;;;;;;;5114368;27;20300;-79
2022/07/12 00:30:30;;;;;;;4.70;1.73;;;;;;;;;;5113401;28;20634;-79
2022/07/12 00:32:58;;;;;;;2.90;1.67;;;;;;;;;;5113118;28;20236;-79
2022/07/12 00:35:25;;;;;;;4.13;1.60;;;;;;;;;;5115674;27;20194;-79
2022/07/12 00:37:53;;;;;;;4.27;1.60;;;;;;;;;;5113133;28;20673;-79
2022/07/12 00:40:20;;;;;;;2.93;1.80;;;;;;;;;;5116471;27;20293;-79
2022/07/12 00:42:49;;;;;;;4.33;1.60;;;;;;;;;;5126680;27;20688;-79
2022/07/12 00:45:16;;;;;;;2.90;1.47;;;;;;;;;;5113492;28;20251;-79
2022/07/12 00:47:45;;;;;;;6.17;1.80;;;;;;;;;;5125092;27;20251;-79
2022/07/12 00:50:12;;;;;;;6.07;1.57;;;;;;;;;;5120929;27;20221;-79
2022/07/12 00:52:40;;;;;;;2.53;1.73;;;;;;;;;;5116997;27;20309;-79
2022/07/12 00:55:10;;;;;;;5.10;1.83;;;;;;;;;;5131468;27;20280;-79
2022/07/12 00:57:37;;;;;;;2.67;1.73;;;;;;;;;;5122197;27;20233;-79
2022/07/12 01:00:05;;;;;;;4.87;1.60;;;;;;;;;;5128030;27;20201;-79
2022/07/12 01:02:33;;;;;;;3.63;1.50;;;;;;;;;;5126200;27;20230;-80
2022/07/12 01:05:00;;;;;;;3.70;1.60;;;;;;;;;;5113017;28;20644;-79
2022/07/12 01:07:27;;;;;;;3.83;1.93;;;;;;;;;;5112534;28;20332;-79
2022/07/12 01:09:55;;;;;;;5.33;1.67;;;;;;;;;;5118192;28;20214;-79
2022/07/12 01:12:25;;;;;;;3.63;1.60;;;;;;;;;;5120518;28;20276;-79
2022/07/12 01:14:52;;;;;;;3.00;1.80;;;;;;;;;;5122170;27;20229;-79
2022/07/12 01:17:21;;;;;;;3.50;1.67;;;;;;;;;;5133281;27;20284;-79
2022/07/12 01:19:49;;;;;;;4.80;1.53;;;;;;;;;;5122891;27;20283;-79
2022/07/12 01:22:17;;;;;;;4.83;1.60;;;;;;;;;;5112893;28;20237;-78
2022/07/12 01:24:45;;;;;;;5.03;1.90;;;;;;;;;;5120121;28;20197;-78
2022/07/12 01:27:13;;;;;;;2.27;1.70;;;;;;;;;;5113058;28;20233;-79
2022/07/12 01:29:40;;;;;;;4.70;1.80;;;;;;;;;;5116517;28;20189;-78
2022/07/12 01:34:50;;;;;;;3.13;1.60;;;;;;;;;;5128534;27;20272;-79
2022/07/12 01:37:18;;;;;;;4.83;1.50;;;;;;;;;;5132840;27;20677;-78
2022/07/12 01:39:46;;;;;;;3.43;1.80;;;;;;;;;;5130478;27;20244;-78
2022/07/12 01:42:14;;;;;;;5.13;1.60;;;;;;;;;;5125303;28;20637;-79
2022/07/12 01:44:41;;;;;;;7.23;1.60;;;;;;;;;;5130229;27;20229;-79
2022/07/12 01:47:09;;;;;;;2.87;1.40;;;;;;;;;;5127730;27;20236;-79
2022/07/12 01:49:36;;;;;;;3.17;1.40;;;;;;;;;;5133881;27;20223;-79
2022/07/12 01:52:03;;;;;;;2.67;1.63;;;;;;;;;;5135443;27;20304;-78
2022/07/12 01:54:30;;;;;;;3.87;1.80;;;;;;;;;;5128601;27;20280;-79
2022/07/12 01:56:59;;;;;;;2.23;1.80;;;;;;;;;;5136895;27;20298;-79
2022/07/12 01:59:26;;;;;;;3.40;2.00;;;;;;;;;;5124500;27;20221;-79
2022/07/12 02:01:54;;;;;;;5.87;2.13;;;;;;;;;;5117261;27;20206;-79
2022/07/12 02:04:21;;;;;;;3.37;1.97;;;;;;;;;;5118000;27;20249;-78
2022/07/12 02:06:49;;;;;;;3.63;1.80;;;;;;;;;;5116467;28;20202;-79
2022/07/12 02:09:17;;;;;;;2.17;1.70;;;;;;;;;;5121045;27;20245;-79
2022/07/12 02:11:45;;;;;;;4.70;1.80;;;;;;;;;;5124924;27;20277;-79
2022/07/12 02:14:13;;;;;;;2.13;1.97;;;;;;;;;;5136733;27;20200;-79
2022/07/12 02:16:41;;;;;;;5.87;1.90;;;;;;;;;;5129260;27;20305;-79
2022/07/12 02:19:08;;;;;;;5.17;2.70;;;;;;;;;;5115792;27;20726;-79
2022/07/12 02:21:35;;;;;;;2.50;2.10;;;;;;;;;;5115674;27;20197;-79
2022/07/12 02:24:03;;;;;;;2.80;1.77;;;;;;;;;;5115550;28;20322;-79
2022/07/12 02:26:30;;;;;;;2.87;2.10;;;;;;;;;;5115621;28;20612;-78
2022/07/12 02:28:58;;;;;;;8.20;2.10;;;;;;;;;;5121403;27;20248;-79
2022/07/12 02:31:26;;;;;;;2.70;1.80;;;;;;;;;;5115173;28;20284;-79
2022/07/12 02:33:54;;;;;;;6.33;2.03;;;;;;;;;;5122577;27;20204;-79
2022/07/12 02:36:21;;;;;;;4.33;1.80;;;;;;;;;;5123801;27;20221;-79
2022/07/12 02:38:48;;;;;;;3.00;1.97;;;;;;;;;;5120001;27;20230;-78
2022/07/12 02:41:16;;;;;;;6.13;1.90;;;;;;;;;;5124736;27;20189;-79
2022/07/12 02:43:43;;;;;;;3.17;1.87;;;;;;;;;;5133834;27;20727;-78
2022/07/12 02:46:11;;;;;;;2.90;1.70;;;;;;;;;;5121242;27;20293;-79
2022/07/12 02:48:40;;;;;;;3.23;1.83;;;;;;;;;;5127363;27;20296;-78
2022/07/12 02:51:08;;;;;;;2.57;1.67;;;;;;;;;;5126953;27;20248;-78
2022/07/12 02:53:35;;;;;;;3.43;1.80;;;;;;;;;;5125604;27;20197;-78
2022/07/12 02:56:03;;;;;;;4.47;2.10;;;;;;;;;;5114810;28;20237;-78
2022/07/12 02:58:30;;;;;;;6.67;1.80;;;;;;;;;;5116986;27;20254;-79
2022/07/12 03:00:57;;;;;;;5.13;1.90;;;;;;;;;;5131434;27;20650;-79
2022/07/12 03:03:24;;;;;;;4.13;1.70;;;;;;;;;;5116358;27;20253;-79
2022/07/12 03:05:53;;;;;;;2.37;1.60;;;;;;;;;;5125364;27;20203;-78
2022/07/12 03:08:20;;;;;;;2.47;1.60;;;;;;;;;;5117376;27;20241;-78
2022/07/12 03:10:47;;;;;;;4.53;1.80;;;;;;;;;;5124370;27;20194;-78
2022/07/12 03:13:15;;;;;;;6.07;1.70;;;;;;;;;;5129735;27;20280;-78
2022/07/12 03:15:42;;;;;;;2.87;1.73;;;;;;;;;;5134107;27;20248;-78
2022/07/12 03:18:10;;;;;;;4.10;1.60;;;;;;;;;;5115434;27;20276;-78
2022/07/12 03:20:38;;;;;;;5.33;1.93;;;;;;;;;;5119928;27;20201;-78
2022/07/12 03:23:07;;;;;;;3.30;2.47;;;;;;;;;;5118317;27;20236;-78
2022/07/12 03:25:35;;;;;;;2.30;2.00;;;;;;;;;;5123821;27;20201;-78
2022/07/12 03:28:02;;;;;;;5.17;2.73;;;;;;;;;;5117812;27;20223;-78
2022/07/12 03:30:29;;;;;;;3.90;2.50;;;;;;;;;;5127733;27;20301;-78
2022/07/12 03:32:56;;;;;;;3.73;2.40;;;;;;;;;;5123202;27;20239;-78
2022/07/12 03:35:23;;;;;;;3.13;2.40;;;;;;;;;;5119156;27;20233;-78
2022/07/12 03:37:52;;;;;;;5.80;2.43;;;;;;;;;;5115883;27;20277;-78
2022/07/12 03:40:21;;;;;;;5.07;2.50;;;;;;;;;;5132018;27;20228;-78
2022/07/12 03:42:50;;;;;;;2.43;2.03;;;;;;;;;;5134927;27;20254;-78
2022/07/12 03:45:17;;;;;;;5.20;2.20;;;;;;;;;;5126741;27;20194;-78
2022/07/12 03:47:44;;;;;;;4.23;2.30;;;;;;;;;;5114993;27;20198;-78
2022/07/12 03:50:12;;;;;;;4.33;2.33;;;;;;;;;;5121417;27;20245;-78
2022/07/12 03:52:40;;;;;;;5.00;2.30;;;;;;;;;;5127938;27;20198;-78
2022/07/12 03:55:08;;;;;;;5.23;2.40;;;;;;;;;;5121744;27;20243;-78
2022/07/12 03:57:37;;;;;;;3.73;2.30;;;;;;;;;;5117342;27;20197;-78
2022/07/12 04:00:07;;;;;;;4.20;2.73;;;;;;;;;;5113424;28;20190;-78
2022/07/12 04:02:34;;;;;;;4.40;2.53;;;;;;;;;;5112268;28;20265;-78
2022/07/12 04:05:01;;;;;;;4.77;2.40;;;;;;;;;;5111854;28;20574;-78
2022/07/12 04:07:29;;;;;;;3.90;2.47;;;;;;;;;;5112667;28;20704;-78
2022/07/12 04:09:56;;;;;;;5.47;2.20;;;;;;;;;;5112933;28;20248;-78
2022/07/12 04:12:23;;;;;;;2.47;2.27;;;;;;;;;;5129656;27;20225;-78
2022/07/12 04:14:52;;;;;;;3.33;2.70;;;;;;;;;;5130583;27;20254;-78
2022/07/12 04:17:19;;;;;;;4.30;2.63;;;;;;;;;;5120588;27;20288;-78
2022/07/12 04:19:46;;;;;;;3.40;2.67;;;;;;;;;;5127223;27;20285;-78
2022/07/12 04:22:13;;;;;;;4.43;2.70;;;;;;;;;;5124795;27;20280;-78
2022/07/12 04:24:40;;;;;;;5.00;2.73;;;;;;;;;;5123897;27;20233;-79
2022/07/12 04:27:07;;;;;;;5.23;2.70;;;;;;;;;;5113034;28;20247;-78
2022/07/12 04:29:35;;;;;;;4.90;2.70;;;;;;;;;;5125527;27;20646;-78
2022/07/12 04:32:03;;;;;;;2.90;2.50;;;;;;;;;;5122967;27;20248;-78
2022/07/12 04:34:30;;;;;;;3.10;2.67;;;;;;;;;;5129097;27;20205;-78
2022/07/12 04:36:58;;;;;;;3.70;2.53;;;;;;;;;;5132304;27;20251;-78
2022/07/12 04:39:25;;;;;;;5.07;2.53;;;;;;;;;;5122215;27;20190;-78
2022/07/12 04:41:52;;;;;;;4.63;2.60;;;;;;;;;;5120708;27;20276;-78
2022/07/12 04:44:19;;;;;;;4.17;2.50;;;;;;;;;;5122509;27;20193;-78
2022/07/12 04:46:46;;;;;;;3.77;2.60;;;;;;;;;;5114151;27;20219;-78
2022/07/12 04:49:15;;;;;;;4.40;2.90;;;;;;;;;;5122491;27;20296;-78
2022/07/12 04:51:42;;;;;;;5.20;2.70;;;;;;;;;;5113383;28;20247;-78
2022/07/12 04:54:09;;;;;;;4.23;2.57;;;;;;;;;;5112823;28;20700;-78
2022/07/12 04:56:37;;;;;;;3.13;2.57;;;;;;;;;;5113111;27;20254;-78
2022/07/12 04:59:04;;;;;;;2.50;2.30;;;;;;;;;;5112921;28;20627;-79
2022/07/12 05:01:32;;;;;;;4.20;2.47;;;;;;;;;;5122928;27;20287;-79
2022/07/12 05:03:59;;;;;;;3.03;2.30;;;;;;;;;;5117005;28;20227;-75
2022/07/12 05:06:28;;;;;;;5.03;2.30;;;;;;;;;;5118169;28;20280;-74
2022/07/12 05:08:55;;;;;;;4.37;2.43;;;;;;;;;;5121251;27;20308;-75
2022/07/12 05:11:22;;;;;;;5.10;2.40;;;;;;;;;;5122804;27;20622;-75
2022/07/12 05:13:50;;;;;;;3.10;2.30;;;;;;;;;;5133223;27;20283;-76
2022/07/12 05:16:17;;;;;;;3.33;2.37;;;;;;;;;;5131366;27;20288;-74
2022/07/12 05:18:44;;;;;;;3.80;2.53;;;;;;;;;;5120131;27;20288;-74
2022/07/12 05:21:11;;;;;;;2.43;2.20;;;;;;;;;;5123055;27;20235;-75
2022/07/12 05:23:40;;;;;;;2.53;2.10;;;;;;;;;;5148084;27;20206;-75
2022/07/12 05:26:07;;;;;;;4.33;2.33;;;;;;;;;;5134047;27;20197;-75
2022/07/12 05:28:34;;;;;;;3.90;2.30;;;;;;;;;;5126392;27;20233;-75
2022/07/12 05:31:02;;;;;;;3.73;2.33;;;;;;;;;;5130699;27;20233;-75
2022/07/12 05:33:29;;;;;;;5.23;2.10;;;;;;;;;;5126213;27;20292;-75
2022/07/12 05:35:56;;;;;;;5.80;2.10;;;;;;;;;;5132116;27;20224;-75
2022/07/12 05:38:23;;;;;;;2.17;1.90;;;;;;;;;;5126566;27;20225;-75
2022/07/12 05:40:52;;;;;;;2.38;1.88;;;;;;;;;;5129525;27;20228;-75
2022/07/12 05:43:19;;;;;;;1.83;1.60;;;;;;;;;;5117157;27;20204;-75
2022/07/12 05:45:46;;;;;;;4.75;2.08;;;;;;;;;;5121930;27;20239;-75
2022/07/12 05:48:15;;;;;;;2.53;1.90;;;;;;;;;;5125539;27;20289;-75
2022/07/12 05:50:42;;;;;;;3.50;1.83;;;;;;;;;;5123015;27;20230;-75
2022/07/12 05:53:24;;;;;;;3.97;1.80;;;;;;;;;;5116032;27;20288;-75
2022/07/12 05:55:53;;;;;;;3.58;1.58;;;;;;;;;;5120029;27;20209;-74
2022/07/12 05:58:21;;;;;;;2.58;1.77;;;;;;;;;;5117176;27;20197;-75
2022/07/12 06:00:49;;;;;;;3.10;1.55;;;;;;;;;;5125863;27;20280;-75
2022/07/12 06:03:16;;;;;;;2.72;1.50;;;;;;;;;;5124135;27;20716;-75
2022/07/12 06:05:43;;;;;;;2.97;1.50;;;;;;;;;;5114502;28;20198;-75
2022/07/12 06:08:10;;;;;;;4.13;1.63;;;;;;;;;;5114401;28;20277;-76
2022/07/12 06:10:38;;;;;;;4.00;1.58;;;;;;;;;;5114193;28;20810;-75
2022/07/12 06:13:06;;;;;;;5.00;1.50;;;;;;;;;;5115199;28;20711;-76
2022/07/12 06:15:34;;;;;;;2.42;1.52;;;;;;;;;;5115469;28;20286;-76
2022/07/12 06:18:01;;;;;;;4.72;1.45;;;;;;;;;;5115522;28;20202;-75
2022/07/12 06:20:28;;;;;;;4.63;1.50;;;;;;;;;;5115427;27;20641;-74
2022/07/12 06:22:56;;;;;;;6.03;1.55;;;;;;;;;;5115242;28;20251;-76
2022/07/12 06:25:23;;;;;;;2.60;1.52;;;;;;;;;;5115633;28;20285;-76
2022/07/12 06:27:50;;;;;;;4.35;1.63;;;;;;;;;;5115655;28;20193;-74
2022/07/12 06:30:19;;;;;;;6.60;1.77;;;;;;;;;;5115174;28;20752;-76
2022/07/12 06:32:47;;;;;;;5.47;1.88;;;;;;;;;;5114922;28;20201;-76
2022/07/12 06:35:14;;;;;;;3.05;1.50;;;;;;;;;;5115715;28;20201;-77
2022/07/12 06:37:42;;;;;;;4.43;1.60;;;;;;;;;;5115226;28;20229;-77
2022/07/12 06:40:10;;;;;;;7.38;1.90;;;;;;;;;;5115223;28;20291;-74
2022/07/12 06:42:37;;;;;;;9.38;1.60;;;;;;;;;;5115263;28;20201;-77
2022/07/12 06:45:05;;;;;;;5.53;1.73;;;;;;;;;;5114073;28;20289;-77
2022/07/12 06:47:33;;;;;;;4.60;1.70;;;;;;;;;;5115189;28;20288;-77
2022/07/12 06:50:00;;;;;;;3.97;1.60;;;;;;;;;;5114392;28;20271;-76
2022/07/12 06:52:28;;;;;;;2.38;1.40;;;;;;;;;;5115295;28;20658;-77
2022/07/12 06:54:55;;;;;;;3.97;1.55;;;;;;;;;;5129249;27;20236;-76
2022/07/12 06:57:22;;;;;;;6.38;1.67;;;;;;;;;;5122716;27;20229;-76
2022/07/12 06:59:50;;;;;;;6.10;1.67;;;;;;;;;;5114771;27;20557;-76
2022/07/12 07:02:17;;;;;;;2.40;1.20;;;;;;;;;;5114526;27;20301;-76
2022/07/12 07:04:46;;;;;;;8.10;1.40;;;;;;;;;;5115085;28;20246;-76
2022/07/12 07:07:13;;;;;;;4.32;1.50;;;;;;;;;;5115003;28;20232;-76
2022/07/12 07:09:41;;;;;;;4.53;1.30;;;;;;;;;;5114816;28;20224;-76
2022/07/12 07:12:08;;;;;;;7.00;1.27;;;;;;;;;;5114937;28;20197;-77
2022/07/12 07:14:36;;;;;;;3.90;1.23;;;;;;;;;;5117912;27;20204;-76
2022/07/12 07:17:03;;;;;;;3.17;1.20;;;;;;;;;;5132748;27;20199;-76
2022/07/12 07:19:30;;;;;;;3.88;1.17;;;;;;;;;;5116018;27;20201;-76
2022/07/12 07:21:59;;;;;;;4.00;1.20;;;;;;;;;;5123401;27;20230;-76
2022/07/12 07:24:26;;;;;;;7.25;1.00;;;;;;;;;;5114456;28;20562;-76
2022/07/12 07:26:54;;;;;;;1.52;1.00;;;;;;;;;;5114407;27;20732;-77
2022/07/12 07:32:06;;;;;;;2.67;0.90;;;;;;;;;;5114221;28;20347;-77
2022/07/12 07:34:33;;;;;;;2.05;1.08;;;;;;;;;;5114129;28;20205;-76
2022/07/12 07:37:02;;;;;;;0.80;0.80;;;;;;;;;;5114541;28;20258;-77
2022/07/12 07:39:29;;;;;;;3.78;1.23;;;;;;;;;;5114117;28;20206;-76
2022/07/12 07:41:56;;;;;;;2.65;1.30;;;;;;;;;;5114038;28;20288;-76
2022/07/12 07:44:23;;;;;;;3.30;0.90;;;;;;;;;;5112830;27;20283;-76
2022/07/12 07:46:51;;;;;;;2.13;0.90;;;;;;;;;;5126891;27;20283;-76
2022/07/12 07:49:18;;;;;;;4.60;1.10;;;;;;;;;;5133890;27;20232;-76
2022/07/12 07:51:45;;;;;;;3.90;0.90;;;;;;;;;;5114146;27;20715;-76
2022/07/12 07:54:13;;;;;;;4.75;1.10;;;;;;;;;;5114319;28;20276;-76
2022/07/12 07:56:41;;;;;;;4.85;1.10;;;;;;;;;;5113697;28;20233;-76
2022/07/12 07:59:08;;;;;;;3.28;1.10;;;;;;;;;;5114110;28;20288;-76
2022/07/12 08:01:46;;;;;;;3.17;1.10;;;;;;;;;;5120179;27;20189;-76
2022/07/12 08:04:13;;;;;;;1.75;1.17;;;;;;;;;;5113392;27;20255;-76
2022/07/12 08:06:40;;;;;;;4.43;1.00;;;;;;;;;;5113550;28;20626;-77
2022/07/12 08:09:08;;;;;;;5.13;1.13;;;;;;;;;;5113851;28;20277;-77
2022/07/12 08:11:37;;;;;;;1.73;0.88;;;;;;;;;;5113567;28;20253;-76
2022/07/12 08:14:04;;;;;;;4.13;0.93;;;;;;;;;;5113633;28;20252;-76
2022/07/12 08:16:31;;;;;;;2.10;0.93;;;;;;;;;;5121558;27;20240;-76
2022/07/12 08:18:59;;;;;;;1.45;1.00;;;;;;;;;;5133696;27;20251;-76
2022/07/12 08:21:26;;;;;;;5.90;0.90;;;;;;;;;;5133637;27;20630;-77
2022/07/12 08:23:54;;;;;;;2.22;1.23;;;;;;;;;;5133825;27;20201;-76
2022/07/12 08:26:21;;;;;;;2.35;1.20;;;;;;;;;;5134042;27;20201;-77
2022/07/12 08:28:50;;;;;;;3.75;0.93;;;;;;;;;;5133758;27;20648;-76
2022/07/12 08:31:17;;;;;;;8.05;1.52;;;;;;;;;;5122691;27;20312;-76
2022/07/12 08:33:45;;;;;;;4.75;1.48;;;;;;;;;;5130038;27;20200;-76
2022/07/12 08:36:12;;;;;;;2.88;1.15;;;;;;;;;;5117755;27;20237;-77
2022/07/12 08:38:40;;;;;;;3.65;1.20;;;;;;;;;;5133195;27;20201;-76
2022/07/12 08:41:09;;;;;;;8.75;1.48;;;;;;;;;;5129767;27;20185;-76
2022/07/12 08:43:36;;;;;;;4.32;1.30;;;;;;;;;;5113621;28;20205;-76
2022/07/12 08:46:05;;;;;;;4.63;1.23;;;;;;;;;;5113109;28;20229;-76
2022/07/12 08:48:33;;;;;;;3.05;1.17;;;;;;;;;;5113097;28;20197;-76
2022/07/12 08:51:04;;;;;;;3.88;1.30;;;;;;;;;;5112799;28;20229;-77
2022/07/12 08:53:31;;;;;;;4.25;1.20;;;;;;;;;;5115639;27;20227;-76
2022/07/12 08:55:59;;;;;;;2.65;1.30;;;;;;;;;;5133211;27;20196;-76
2022/07/12 08:58:26;;;;;;;1.50;1.10;;;;;;;;;;5132331;27;20224;-77
2022/07/12 09:00:53;;;;;;;2.95;1.10;;;;;;;;;;5133256;27;20305;-76
2022/07/12 09:03:22;;;;;;;8.18;1.20;;;;;;;;;;5132851;27;20266;-76
2022/07/12 09:05:52;;;;;;;2.53;1.17;;;;;;;;;;5133676;27;20541;-76
2022/07/12 09:08:19;;;;;;;2.10;0.90;;;;;;;;;;5112480;28;20288;-76
2022/07/12 09:10:54;;;;;;;3.63;1.00;;;;;;;;;;5127449;28;20212;-77
2022/07/12 09:13:21;;;;;;;3.13;1.05;;;;;;;;;;5133203;27;20287;-76
2022/07/12 09:15:50;;;;;;;3.40;1.25;;;;;;;;;;5131257;27;20279;-76
2022/07/12 09:18:18;;;;;;;1.80;1.17;;;;;;;;;;5112702;28;20296;-76
2022/07/12 09:20:53;;;;;;;3.50;1.10;;;;;;;;;;5112896;28;20197;-77
2022/07/12 09:23:20;;;;;;;1.80;1.20;;;;;;;;;;5112471;28;20652;-76
2022/07/12 09:25:48;;;;;;;2.03;1.10;;;;;;;;;;5112873;28;20197;-77
2022/07/12 09:28:16;;;;;;;3.20;1.02;;;;;;;;;;5131529;28;20265;-76
2022/07/12 09:30:49;;;;;;;2.40;1.33;;;;;;;;;;5132649;27;20220;-77
2022/07/12 09:36:09;;;;;;;2.53;1.20;;;;;;;;;;5133112;27;20257;-77
2022/07/12 09:38:36;;;;;;;6.60;1.45;;;;;;;;;;5132696;27;20747;-77
2022/07/12 09:41:03;;;;;;;4.82;1.27;;;;;;;;;;5133218;27;20196;-77
2022/07/12 09:43:31;;;;;;;1.73;1.15;;;;;;;;;;5132986;27;20197;-76
2022/07/12 09:45:58;;;;;;;2.42;1.20;;;;;;;;;;5131426;27;20683;-77
2022/07/12 09:48:27;;;;;;;4.03;1.40;;;;;;;;;;5131992;27;20232;-77
2022/07/12 09:50:54;;;;;;;4.38;1.40;;;;;;;;;;5128720;28;20220;-77
2022/07/12 09:53:24;;;;;;;4.15;1.25;;;;;;;;;;5133181;27;20227;-77
2022/07/12 09:55:52;;;;;;;2.70;1.05;;;;;;;;;;5132314;27;20236;-77
2022/07/12 09:58:27;;;;;;;1.80;1.15;;;;;;;;;;5123930;27;20231;-77
2022/07/12 10:00:55;;;;;;;2.90;1.15;;;;;;;;;;5124538;27;20287;-77
2022/07/12 10:03:24;;;;;;;3.03;1.20;;;;;;;;;;5122228;28;20743;-77
2022/07/12 10:05:52;;;;;;;2.88;1.23;;;;;;;;;;5113753;28;20200;-77
2022/07/12 10:08:20;;;;;;;2.20;1.27;;;;;;;;;;5131144;27;20193;-76
2022/07/12 10:10:49;;;;;;;5.90;1.42;;;;;;;;;;5125659;27;20245;-77
2022/07/12 10:13:17;;;;;;;2.58;1.38;;;;;;;;;;5115683;28;20197;-77
2022/07/12 10:15:46;;;;;;;1.92;1.20;;;;;;;;;;5116287;28;20280;-77
2022/07/12 10:18:17;;;;;;;1.65;1.10;;;;;;;;;;5118429;27;20215;-77
2022/07/12 10:20:44;;;;;;;2.25;1.00;;;;;;;;;;5127606;27;20192;-77
2022/07/12 10:23:33;;;;;;;2.55;1.10;;;;;;;;;;5127323;27;20201;-76
2022/07/12 10:26:02;;;;;;;1.15;1.00;;;;;;;;;;5118712;27;20209;-77
2022/07/12 10:28:59;;;;;;;2.97;1.30;;;;;;;;;;5127038;27;20196;-76
2022/07/12 10:31:29;;;;;;;1.98;1.20;;;;;;;;;;5071532;28;20246;-77
2022/07/12 10:34:15;;;;;;;1.77;1.00;;;;;;;;;;5072398;28;20293;-78
2022/07/12 10:37:01;;;;;;;2.75;1.17;;;;;;;;;;5068502;28;20285;-77
2022/07/12 10:39:29;;;;;;;2.00;1.02;;;;;;;;;;5055639;28;20202;-77
2022/07/12 10:42:11;;;;;;;2.63;1.27;;;;;;;;;;5069488;28;20228;-77
2022/07/12 10:44:41;;;;;;;3.42;1.27;;;;;;;;;;5068102;28;20717;-77
2022/07/12 10:47:09;;;;;;;2.45;1.15;;;;;;;;;;5069110;28;20202;-77
2022/07/12 10:49:37;;;;;;;1.98;1.10;;;;;;;;;;5068082;28;20754;-77
2022/07/12 10:52:22;;;;;;;2.72;1.45;;;;;;;;;;5069231;28;20355;-77
2022/07/12 10:55:17;;;;;;;0.88;0.85;;;;;;;;;;5069327;28;20226;-77
2022/07/12 10:57:46;;;;;;;3.72;1.25;;;;;;;;;;5057991;28;20643;-77
2022/07/12 11:00:18;;;;;;;3.13;1.30;;;;;;;;;;5068841;28;20198;-78
2022/07/12 11:02:45;;;;;;;1.92;1.20;;;;;;;;;;5062562;28;20320;-77
2022/07/12 11:05:12;;;;;;;2.78;1.13;;;;;;;;;;5089318;27;20195;-77
2022/07/12 11:07:40;;;;;;;3.78;1.20;;;;;;;;;;5121314;27;20723;-78
2022/07/12 11:10:07;;;;;;;3.15;1.17;;;;;;;;;;5132159;27;20283;-77
2022/07/12 11:12:35;;;;;;;3.45;1.08;;;;;;;;;;5131394;27;20251;-77
2022/07/12 11:15:03;;;;;;;3.33;1.20;;;;;;;;;;5118060;27;20340;-77
2022/07/12 11:17:33;;;;;;;1.17;0.90;;;;;;;;;;5112042;28;20232;-77
2022/07/12 11:20:10;;;;;;;1.75;1.00;;;;;;;;;;5113112;27;20228;-77
2022/07/12 11:22:38;;;;;;;2.20;1.00;;;;;;;;;;5119821;27;20217;-77
2022/07/12 11:28:30;;;;;;;1.58;1.00;;;;;;;;;;5136198;27;20547;-78
2022/07/12 11:31:05;;;;;;;2.78;1.00;;;;;;;;;;5114971;27;20224;-78
2022/07/12 11:33:51;;;;;;;1.70;0.90;;;;;;;;;;5115703;28;20246;-79
2022/07/12 11:36:30;;;;;;;2.70;0.90;;;;;;;;;;5115435;28;20198;-79
2022/07/12 11:38:58;;;;;;;1.80;0.93;;;;;;;;;;5113980;28;20276;-79
2022/07/12 11:41:25;;;;;;;3.58;1.33;;;;;;;;;;5127145;27;20231;-79
2022/07/12 11:43:52;;;;;;;1.55;1.00;;;;;;;;;;5120587;27;20232;-79
2022/07/12 11:46:19;;;;;;;3.47;1.23;;;;;;;;;;5124929;27;20646;-78
2022/07/12 11:48:46;;;;;;;4.47;1.23;;;;;;;;;;5116625;27;20205;-79
2022/07/12 11:51:14;;;;;;;2.78;1.20;;;;;;;;;;5115005;27;20651;-79
2022/07/12 11:53:43;;;;;;;2.75;1.00;;;;;;;;;;5128611;27;20204;-79
2022/07/12 11:56:11;;;;;;;1.88;1.10;;;;;;;;;;5120032;27;20227;-79
2022/07/12 11:58:38;;;;;;;2.60;1.10;;;;;;;;;;5126029;27;20201;-79
2022/07/12 12:01:06;;;;;;;3.05;1.10;;;;;;;;;;5127554;27;20327;-79
2022/07/12 12:03:43;;;;;;;3.20;0.90;;;;;;;;;;5129778;27;20310;-79
2022/07/12 12:06:10;;;;;;;1.30;0.90;;;;;;;;;;5123671;27;20273;-78
2022/07/12 12:08:37;;;;;;;2.15;1.10;;;;;;;;;;5129701;27;20197;-79
2022/07/12 12:11:06;;;;;;;2.10;0.93;;;;;;;;;;5124534;27;20309;-78
2022/07/12 12:13:33;;;;;;;2.53;1.20;;;;;;;;;;5126845;27;20229;-79
2022/07/12 12:16:01;;;;;;;2.72;1.17;;;;;;;;;;5124598;27;20249;-79
2022/07/12 12:18:30;;;;;;;1.92;1.10;;;;;;;;;;5121261;27;20225;-78
2022/07/12 12:21:01;;;;;;;3.83;0.90;;;;;;;;;;5117626;27;20197;-78
2022/07/12 12:23:28;;;;;;;1.98;0.93;;;;;;;;;;5117396;27;20233;-78
2022/07/12 12:26:10;;;;;;;2.65;1.08;;;;;;;;;;5129239;27;20228;-79
2022/07/12 12:28:49;;;;;;;2.58;1.00;;;;;;;;;;5124276;27;20308;-78
2022/07/12 12:31:17;;;;;;;1.73;0.90;;;;;;;;;;5122733;27;20220;-79
2022/07/12 12:33:44;;;;;;;2.75;0.90;;;;;;;;;;5124727;27;20283;-78
2022/07/12 12:36:15;;;;;;;1.20;0.90;;;;;;;;;;5124709;27;20197;-79
2022/07/12 12:38:43;;;;;;;2.08;0.90;;;;;;;;;;5119562;27;20224;-79
2022/07/12 12:41:10;;;;;;;3.55;1.00;;;;;;;;;;5128374;27;20203;-79
2022/07/12 12:43:38;;;;;;;3.13;1.00;;;;;;;;;;5112994;28;20197;-79
2022/07/12 12:46:07;;;;;;;2.63;0.90;;;;;;;;;;5115015;27;20238;-78
2022/07/12 12:48:34;;;;;;;1.52;0.80;;;;;;;;;;5128214;27;21675;-79
2022/07/12 12:51:06;;;;;;;2.88;1.00;;;;;;;;;;5118603;27;20213;-78
2022/07/12 12:53:33;;;;;;;2.28;0.90;;;;;;;;;;5130832;27;20250;-79
2022/07/12 12:56:00;;;;;;;3.45;0.85;;;;;;;;;;5132944;27;20192;-79
2022/07/12 12:58:28;;;;;;;0.70;0.70;;;;;;;;;;5122746;27;20228;-78
2022/07/12 13:00:56;;;;;;;2.67;0.82;;;;;;;;;;5121234;27;20199;-79
2022/07/12 13:03:25;;;;;;;3.17;0.98;;;;;;;;;;5120712;27;20228;-79
2022/07/12 13:05:52;;;;;;;2.03;0.75;;;;;;;;;;5113826;27;20189;-79
2022/07/12 13:08:19;;;;;;;2.97;1.08;;;;;;;;;;5127449;28;20283;-78
2022/07/12 13:10:47;;;;;;;2.47;0.90;;;;;;;;;;5129404;27;20232;-79
2022/07/12 13:13:14;;;;;;;1.88;0.80;;;;;;;;;;5118699;27;20260;-78
2022/07/12 13:15:42;;;;;;;2.72;0.95;;;;;;;;;;5117833;28;20689;-78
2022/07/12 13:18:09;;;;;;;1.88;0.80;;;;;;;;;;5127038;27;20239;-78
2022/07/12 13:20:37;;;;;;;1.52;0.88;;;;;;;;;;5116151;28;20292;-79
2022/07/12 13:23:05;;;;;;;9.20;1.02;;;;;;;;;;5120669;27;20323;-79
2022/07/12 13:25:32;;;;;;;0.85;0.85;;;;;;;;;;5126679;28;20228;-79
2022/07/12 13:27:59;;;;;;;2.22;0.95;;;;;;;;;;5128786;28;20232;-78
2022/07/12 13:30:26;;;;;;;1.38;0.90;;;;;;;;;;5122912;28;20626;-78
2022/07/12 13:32:54;;;;;;;1.77;0.93;;;;;;;;;;5132577;27;20220;-79
2022/07/12 13:35:21;;;;;;;2.55;0.90;;;;;;;;;;5119115;27;20250;-78
2022/07/12 13:37:49;;;;;;;1.48;0.80;;;;;;;;;;5115155;28;20231;-79
2022/07/12 13:40:17;;;;;;;1.98;0.80;;;;;;;;;;5132390;27;20719;-78
2022/07/12 13:42:45;;;;;;;1.60;0.80;;;;;;;;;;5118191;27;20202;-78
2022/07/12 13:45:14;;;;;;;1.88;0.80;;;;;;;;;;5132923;27;20231;-78
2022/07/12 13:47:41;;;;;;;2.30;0.80;;;;;;;;;;5123356;27;20193;-79
2022/07/12 13:50:09;;;;;;;3.28;0.90;;;;;;;;;;5122910;27;20660;-78
2022/07/12 13:52:36;;;;;;;3.03;0.90;;;;;;;;;;5131962;27;20252;-78
2022/07/12 13:55:05;;;;;;;2.25;0.80;;;;;;;;;;5132421;27;20232;-79
2022/07/12 13:57:32;;;;;;;4.38;1.00;;;;;;;;;;5127573;27;20247;-78
2022/07/12 14:00:01;;;;;;;1.45;0.85;;;;;;;;;;5124429;27;20232;-78
2022/07/12 14:02:28;;;;;;;2.38;0.80;;;;;;;;;;5120403;27;20197;-79
2022/07/12 14:04:55;;;;;;;1.15;0.82;;;;;;;;;;5129782;27;20203;-79
2022/07/12 14:07:23;;;;;;;1.80;1.00;;;;;;;;;;5124423;27;20253;-79
2022/07/12 14:09:50;;;;;;;2.13;0.80;;;;;;;;;;5122625;27;20635;-78
2022/07/12 14:12:18;;;;;;;1.67;0.80;;;;;;;;;;5131780;27;20255;-79
2022/07/12 14:17:30;;;;;;;1.30;0.80;;;;;;;;;;5122791;27;20323;-78
2022/07/12 14:19:57;;;;;;;1.27;0.77;;;;;;;;;;5128962;27;20220;-79
2022/07/12 14:22:25;;;;;;;1.92;1.00;;;;;;;;;;5130614;27;20268;-79
2022/07/12 14:24:52;;;;;;;1.17;0.80;;;;;;;;;;5129472;27;20225;-78
2022/07/12 14:27:20;;;;;;;0.85;0.73;;;;;;;;;;5128776;27;20224;-78
2022/07/12 14:29:48;;;;;;;1.40;0.90;;;;;;;;;;5131582;27;20742;-78
2022/07/12 14:32:15;;;;;;;3.45;0.93;;;;;;;;;;5124783;27;20275;-79
2022/07/12 14:34:42;;;;;;;2.88;1.02;;;;;;;;;;5127088;27;20288;-78
2022/07/12 14:37:10;;;;;;;0.95;0.73;;;;;;;;;;5127748;27;20280;-78
2022/07/12 14:39:38;;;;;;;1.85;0.90;;;;;;;;;;5123685;27;20266;-78
2022/07/12 14:42:06;;;;;;;2.15;0.90;;;;;;;;;;5115794;27;20197;-79
2022/07/12 14:44:34;;;;;;;2.13;0.80;;;;;;;;;;5130508;27;20229;-79
2022/07/12 14:47:02;;;;;;;0.82;0.80;;;;;;;;;;5129435;27;20680;-79
2022/07/12 14:49:29;;;;;;;1.88;0.70;;;;;;;;;;5116159;27;20687;-78
2022/07/12 14:51:57;;;;;;;3.15;0.80;;;;;;;;;;5122408;27;20251;-79
2022/07/12 14:54:24;;;;;;;1.08;0.98;;;;;;;;;;5134096;27;20218;-78
2022/07/12 14:56:52;;;;;;;2.60;0.70;;;;;;;;;;5120213;27;20220;-78
2022/07/12 14:59:19;;;;;;;2.25;0.90;;;;;;;;;;5128213;27;20280;-78
2022/07/12 15:01:48;;;;;;;1.73;0.80;;;;;;;;;;5127902;27;20233;-78
2022/07/12 15:04:15;;;;;;;1.45;0.90;;;;;;;;;;5131889;27;20250;-79